Time;durP1;ratioP1;P1;durP2;ratioP2;P2;SDS_P1;SDS_P2;PMS_P1;PMS_P2;Temp;Humidity;BMP_temperature;BMP_pressure;BME280_temperature;BME280_humidity;BME280_pressure;Samples;Min_cycle;Max_cycle;Signal;HPM_P1;HPM_P2
2023/04/24 00:01:50;;;;;;;17.05;11.15;;;333.60;2329.60;;;;;;5052612;28;20051;-60
2023/04/24 00:04:16;;;;;;;11.43;8.23;;;333.60;2329.60;;;;;;5052976;28;20028;-60
2023/04/24 00:06:43;;;;;;;9.30;7.75;;;333.60;2329.60;;;;;;5049349;28;20446;-64
2023/04/24 00:09:09;;;;;;;12.30;8.10;;;333.60;2329.60;;;;;;5042681;28;20025;-61
2023/04/24 00:11:36;;;;;;;7.97;6.25;;;333.60;2329.60;;;;;;5052654;28;20115;-60
2023/04/24 00:14:02;;;;;;;10.60;6.63;;;333.50;2329.60;;;;;;5051995;28;20048;-61
2023/04/24 00:16:28;;;;;;;13.27;7.88;;;333.60;2329.60;;;;;;5052511;28;20021;-60
2023/04/24 00:18:54;;;;;;;61.83;38.53;;;333.60;2329.60;;;;;;5052363;28;20032;-60
2023/04/24 00:21:20;;;;;;;96.38;64.20;;;333.60;2329.60;;;;;;5051881;28;20063;-61
2023/04/24 00:23:46;;;;;;;21.17;15.30;;;333.70;2329.60;;;;;;5052196;28;20025;-60
2023/04/24 00:26:11;;;;;;;28.27;17.15;;;333.70;2329.60;;;;;;5052497;28;20040;-60
2023/04/24 00:28:37;;;;;;;9.38;7.60;;;333.70;2329.60;;;;;;5052473;28;20126;-62
2023/04/24 00:31:03;;;;;;;11.35;7.05;;;333.50;2329.60;;;;;;5052058;28;20025;-60
2023/04/24 00:33:28;;;;;;;11.82;8.90;;;333.50;2329.60;;;;;;5052306;28;20466;-60
2023/04/24 00:35:55;;;;;;;11.20;7.30;;;333.20;2329.60;;;;;;5051734;28;20052;-61
2023/04/24 00:38:21;;;;;;;29.75;20.70;;;333.10;2329.60;;;;;;5052061;28;20063;-60
2023/04/24 00:40:49;;;;;;;10.27;7.30;;;333.20;2329.60;;;;;;5052007;28;20089;-61
2023/04/24 00:43:15;;;;;;;51.50;38.15;;;333.30;2329.60;;;;;;5052489;28;20029;-60
2023/04/24 00:45:41;;;;;;;88.15;56.53;;;333.30;2329.60;;;;;;5052165;28;20072;-60
2023/04/24 00:48:07;;;;;;;45.17;29.45;;;333.30;2329.60;;;;;;5052053;28;20463;-63
2023/04/24 00:50:35;;;;;;;16.33;12.50;;;333.30;2329.60;;;;;;5051589;28;20055;-60
2023/04/24 00:53:01;;;;;;;14.60;11.70;;;333.30;2329.60;;;;;;5051509;28;20016;-60
2023/04/24 00:55:27;;;;;;;16.48;12.45;;;333.40;2329.60;;;;;;5051533;28;20525;-60
2023/04/24 00:57:52;;;;;;;10.68;8.27;;;333.40;2329.60;;;;;;5051486;28;20029;-60
2023/04/24 01:00:19;;;;;;;21.67;16.95;;;333.40;2329.60;;;;;;5051468;28;20094;-60
2023/04/24 01:02:45;;;;;;;11.65;8.43;;;333.30;2329.60;;;;;;5051277;28;20075;-62
2023/04/24 01:05:13;;;;;;;13.93;10.43;;;333.40;2329.60;;;;;;5051478;28;20033;-60
2023/04/24 01:07:40;;;;;;;13.52;9.85;;;333.40;2329.60;;;;;;5051594;28;20049;-61
2023/04/24 01:10:08;;;;;;;13.68;9.63;;;333.40;2329.60;;;;;;5051760;28;20355;-60
2023/04/24 01:12:33;;;;;;;14.13;8.18;;;333.40;2329.60;;;;;;5051286;28;20609;-60
2023/04/24 01:14:59;;;;;;;12.90;8.95;;;333.40;2329.60;;;;;;5050978;28;20088;-60
2023/04/24 01:17:25;;;;;;;9.88;7.63;;;333.40;2329.60;;;;;;5051883;28;20418;-63
2023/04/24 01:19:53;;;;;;;17.63;11.07;;;333.40;2329.60;;;;;;5051082;28;20059;-63
2023/04/24 01:22:20;;;;;;;11.75;8.07;;;333.40;2329.60;;;;;;5051348;28;20083;-62
2023/04/24 01:24:46;;;;;;;20.42;14.88;;;333.40;2329.60;;;;;;5051757;28;20071;-61
2023/04/24 01:27:12;;;;;;;13.02;9.63;;;333.20;2329.60;;;;;;5051034;28;20032;-61
2023/04/24 01:29:38;;;;;;;11.25;7.93;;;333.20;2329.60;;;;;;5051349;28;20107;-61
2023/04/24 01:32:05;;;;;;;13.95;8.93;;;333.20;2329.60;;;;;;5050947;28;20099;-62
2023/04/24 01:34:31;;;;;;;12.25;9.38;;;333.00;2329.60;;;;;;5050732;28;20459;-64
2023/04/24 01:36:57;;;;;;;25.38;15.27;;;333.00;2329.60;;;;;;5050904;28;20033;-65
2023/04/24 01:39:25;;;;;;;42.30;30.58;;;333.10;2329.60;;;;;;5051110;28;20032;-60
2023/04/24 01:41:51;;;;;;;18.67;13.38;;;333.10;2329.60;;;;;;5050999;28;20148;-60
2023/04/24 01:44:18;;;;;;;9.77;8.45;;;333.10;2329.60;;;;;;5051068;28;20025;-61
2023/04/24 01:46:44;;;;;;;13.30;8.50;;;333.20;2329.60;;;;;;5051379;28;20021;-60
2023/04/24 01:49:10;;;;;;;13.40;8.82;;;333.10;2329.60;;;;;;5050968;28;20060;-60
2023/04/24 01:51:36;;;;;;;85.70;53.72;;;333.00;2329.60;;;;;;5050669;28;20052;-61
2023/04/24 01:54:01;;;;;;;44.17;29.42;;;333.00;2329.60;;;;;;5050586;28;20025;-64
2023/04/24 01:56:30;;;;;;;18.00;11.65;;;333.00;2329.60;;;;;;5050801;28;20032;-64
2023/04/24 01:58:56;;;;;;;14.45;10.00;;;333.00;2329.60;;;;;;5050580;28;20021;-60
2023/04/24 02:01:24;;;;;;;26.23;18.92;;;332.90;2329.60;;;;;;5050178;28;20106;-61
2023/04/24 02:03:50;;;;;;;27.45;18.63;;;332.80;2329.60;;;;;;5050157;28;20025;-62
2023/04/24 02:06:15;;;;;;;50.53;37.80;;;332.90;2329.60;;;;;;5050250;28;20025;-61
2023/04/24 02:08:41;;;;;;;13.52;9.63;;;332.90;2329.60;;;;;;5050215;28;20097;-61
2023/04/24 02:11:09;;;;;;;16.98;11.25;;;332.80;2329.60;;;;;;5050230;28;20044;-60
2023/04/24 02:13:35;;;;;;;18.90;14.35;;;332.80;2329.60;;;;;;5049967;28;20021;-60
2023/04/24 02:16:01;;;;;;;33.78;23.40;;;332.80;2329.60;;;;;;5049747;28;20490;-61
2023/04/24 02:18:27;;;;;;;33.75;20.58;;;308.10;2304.00;;;;;;5050416;28;20032;-61
2023/04/24 02:20:52;;;;;;;9.93;7.55;;;308.00;2304.00;;;;;;5049824;28;20528;-63
2023/04/24 02:23:18;;;;;;;10.32;7.55;;;308.00;2304.00;;;;;;5050203;28;20017;-61
2023/04/24 02:25:44;;;;;;;14.20;9.10;;;307.80;2304.00;;;;;;5050230;28;20497;-62
2023/04/24 02:28:09;;;;;;;11.50;8.40;;;307.60;2304.00;;;;;;5049648;28;20383;-61
2023/04/24 02:30:35;;;;;;;11.85;8.45;;;307.60;2304.00;;;;;;5049691;28;20048;-64
2023/04/24 02:33:01;;;;;;;10.57;8.32;;;307.70;2304.00;;;;;;5049897;28;20017;-61
2023/04/24 02:35:36;;;;;;;10.98;8.20;;;307.70;2304.00;;;;;;5066496;28;20399;-61
2023/04/24 02:38:02;;;;;;;13.75;9.73;;;307.70;2304.00;;;;;;5066408;28;20029;-62
2023/04/24 02:40:28;;;;;;;14.70;7.75;;;307.70;2304.00;;;;;;5066478;28;20111;-61
2023/04/24 02:42:54;;;;;;;8.88;6.43;;;307.80;2304.00;;;;;;5066159;28;20104;-64
2023/04/24 02:45:20;;;;;;;9.95;8.10;;;307.90;2304.00;;;;;;5066038;28;20025;-63
2023/04/24 02:47:45;;;;;;;21.75;16.90;;;308.00;2304.00;;;;;;5066456;28;20029;-62
2023/04/24 02:50:11;;;;;;;12.98;9.02;;;308.00;2304.00;;;;;;5066190;28;20021;-62
2023/04/24 02:52:37;;;;;;;13.50;8.60;;;308.10;2304.00;;;;;;5057528;28;20029;-62
2023/04/24 02:55:03;;;;;;;10.18;6.47;;;308.00;2304.00;;;;;;5061058;28;20437;-61
2023/04/24 02:57:28;;;;;;;10.82;7.25;;;308.10;2304.00;;;;;;5066338;28;20021;-61
2023/04/24 02:59:54;;;;;;;8.90;6.50;;;308.10;2304.00;;;;;;5065799;28;20032;-65
2023/04/24 03:02:20;;;;;;;12.07;7.25;;;308.00;2304.00;;;;;;5065809;28;20059;-61
2023/04/24 03:04:47;;;;;;;12.15;7.80;;;307.90;2304.00;;;;;;5059345;28;20033;-61
2023/04/24 03:07:14;;;;;;;16.13;10.82;;;307.90;2304.00;;;;;;5065813;28;20032;-62
2023/04/24 03:09:40;;;;;;;12.00;7.45;;;307.70;2304.00;;;;;;5065825;28;20031;-61
2023/04/24 03:12:06;;;;;;;10.57;7.60;;;307.80;2304.00;;;;;;5066043;28;20032;-61
2023/04/24 03:14:32;;;;;;;12.73;7.95;;;307.70;2304.00;;;;;;5065258;28;20548;-61
2023/04/24 03:16:58;;;;;;;9.85;6.53;;;307.60;2304.00;;;;;;5065860;28;20027;-64
2023/04/24 03:19:24;;;;;;;11.02;7.32;;;307.60;2304.00;;;;;;5065563;28;20116;-64
2023/04/24 03:21:50;;;;;;;10.63;7.13;;;307.60;2304.00;;;;;;5065644;28;20378;-62
2023/04/24 03:24:16;;;;;;;10.07;6.72;;;307.60;2304.00;;;;;;5065469;28;20028;-62
2023/04/24 03:26:42;;;;;;;11.43;7.72;;;307.70;2304.00;;;;;;5065780;28;20025;-61
2023/04/24 03:29:07;;;;;;;14.02;9.00;;;307.80;2304.00;;;;;;5065483;28;20363;-62
2023/04/24 03:31:33;;;;;;;8.20;6.32;;;307.80;2304.00;;;;;;5066141;28;20026;-62
2023/04/24 03:33:59;;;;;;;8.68;6.85;;;307.70;2304.00;;;;;;5051837;28;20446;-64
2023/04/24 03:36:25;;;;;;;7.78;5.93;;;307.70;2304.00;;;;;;5051123;28;20083;-63
2023/04/24 03:38:51;;;;;;;7.07;6.30;;;307.80;2304.00;;;;;;5064789;28;20048;-62
2023/04/24 03:41:17;;;;;;;8.80;6.82;;;307.70;2304.00;;;;;;5065317;28;20061;-60
2023/04/24 03:43:43;;;;;;;8.02;5.97;;;307.70;2304.00;;;;;;5065050;28;20029;-60
2023/04/24 03:46:09;;;;;;;11.43;5.78;;;307.70;2304.00;;;;;;5056380;28;20021;-60
2023/04/24 03:48:35;;;;;;;8.07;5.50;;;282.50;2278.40;;;;;;5052075;28;20074;-63
2023/04/24 03:51:01;;;;;;;7.70;6.00;;;307.80;2304.00;;;;;;5051730;28;20032;-60
2023/04/24 03:53:26;;;;;;;8.07;6.00;;;307.90;2304.00;;;;;;5051853;28;20029;-64
2023/04/24 03:55:53;;;;;;;10.40;6.25;;;308.00;2304.00;;;;;;5051520;28;20021;-64
2023/04/24 03:58:19;;;;;;;11.75;7.40;;;308.10;2304.00;;;;;;5051923;28;20032;-61
2023/04/24 04:00:46;;;;;;;9.25;7.15;;;332.80;2329.60;;;;;;5051484;28;20029;-63
2023/04/24 04:03:13;;;;;;;9.30;6.95;;;332.80;2329.60;;;;;;5051403;28;20435;-61
2023/04/24 04:05:39;;;;;;;10.35;7.13;;;332.90;2329.60;;;;;;5051583;28;20029;-61
2023/04/24 04:08:05;;;;;;;8.10;6.53;;;332.90;2329.60;;;;;;5051570;28;20356;-65
2023/04/24 04:10:31;;;;;;;10.60;6.15;;;333.00;2329.60;;;;;;5051434;28;20082;-62
2023/04/24 04:12:56;;;;;;;8.88;6.45;;;333.10;2329.60;;;;;;5051209;28;20043;-61
2023/04/24 04:15:22;;;;;;;8.27;5.40;;;333.00;2329.60;;;;;;5051246;28;20558;-61
2023/04/24 04:17:48;;;;;;;9.95;6.47;;;333.10;2329.60;;;;;;5051475;28;20107;-62
2023/04/24 04:20:13;;;;;;;10.57;6.93;;;333.20;2329.60;;;;;;5051560;28;20394;-61
2023/04/24 04:22:39;;;;;;;8.15;6.00;;;333.20;2329.60;;;;;;5050962;28;20032;-61
2023/04/24 04:25:06;;;;;;;8.65;5.53;;;333.20;2329.60;;;;;;5051126;28;20029;-60
2023/04/24 04:27:32;;;;;;;19.17;17.23;;;333.20;2329.60;;;;;;5051204;28;20025;-63
2023/04/24 04:30:04;;;;;;;13.93;10.20;;;333.20;2329.60;;;;;;5051384;28;20078;-64
2023/04/24 04:32:34;;;;;;;16.88;11.48;;;333.20;2329.60;;;;;;5051130;28;20027;-62
2023/04/24 04:35:03;;;;;;;19.80;15.13;;;333.20;2329.60;;;;;;5050645;28;20359;-62
2023/04/24 04:37:31;;;;;;;15.05;11.57;;;333.30;2329.60;;;;;;5050689;28;20066;-61
2023/04/24 04:40:00;;;;;;;9.45;7.30;;;333.40;2329.60;;;;;;5051158;28;20423;-62
2023/04/24 04:42:26;;;;;;;10.88;6.57;;;333.30;2329.60;;;;;;5050949;28;20033;-64
2023/04/24 04:44:53;;;;;;;10.43;7.80;;;333.50;2329.60;;;;;;5050797;28;20139;-63
2023/04/24 04:47:21;;;;;;;11.95;9.05;;;333.60;2329.60;;;;;;5050585;28;20013;-61
2023/04/24 04:49:47;;;;;;;11.73;8.20;;;333.60;2329.60;;;;;;5051028;28;20035;-64
2023/04/24 04:52:13;;;;;;;10.00;7.22;;;358.40;2329.60;;;;;;5050521;28;20072;-63
2023/04/24 04:54:39;;;;;;;8.98;7.28;;;358.70;2329.60;;;;;;5036602;28;20466;-61
2023/04/24 04:57:05;;;;;;;14.55;8.60;;;358.90;2329.60;;;;;;5049978;28;20028;-64
2023/04/24 04:59:31;;;;;;;9.93;8.88;;;384.70;2329.60;;;;;;5050393;28;20048;-62
2023/04/24 05:01:57;;;;;;;10.45;8.02;;;410.40;2355.20;;;;;;5050714;28;20057;-61
2023/04/24 05:04:22;;;;;;;10.75;7.50;;;410.50;2355.20;;;;;;5035095;28;20398;-61
2023/04/24 05:06:48;;;;;;;9.82;6.85;;;487.00;2124.80;;;;;;5039389;28;20451;-61
2023/04/24 05:09:14;;;;;;;9.25;6.70;;;563.20;1971.20;;;;;;5044408;28;20112;-61
2023/04/24 05:11:39;;;;;;;10.77;6.65;;;614.50;1689.60;;;;;;5050159;28;20191;-62
2023/04/24 05:14:05;;;;;;;9.85;7.18;;;615.00;1561.60;;;;;;5050202;28;20051;-66
2023/04/24 05:16:31;;;;;;;12.23;8.18;;;640.30;1536.00;;;;;;5050157;28;20020;-62
2023/04/24 05:18:57;;;;;;;16.00;8.50;;;640.50;1536.00;;;;;;5050327;28;20028;-60
2023/04/24 05:21:22;;;;;;;10.02;7.40;;;640.20;1510.40;;;;;;5049865;28;20383;-62
2023/04/24 05:23:48;;;;;;;10.52;7.25;;;589.00;1664.00;;;;;;5050247;28;20021;-62
2023/04/24 05:26:15;;;;;;;9.35;6.97;;;563.20;1766.40;;;;;;5036692;28;20025;-62
2023/04/24 05:28:41;;;;;;;9.80;7.28;;;563.70;1715.20;;;;;;5031961;28;20448;-61
2023/04/24 05:31:06;;;;;;;7.18;6.18;;;614.90;1561.60;;;;;;5036199;28;20067;-62
2023/04/24 05:33:32;;;;;;;9.93;6.30;;;589.20;1638.40;;;;;;5049789;28;20049;-64
2023/04/24 05:35:58;;;;;;;7.72;6.10;;;588.90;1638.40;;;;;;5049909;28;20057;-62
2023/04/24 05:38:23;;;;;;;7.78;5.72;;;563.90;1689.60;;;;;;5034839;28;20033;-65
2023/04/24 05:40:49;;;;;;;17.20;13.25;;;563.90;1715.20;;;;;;5030221;28;20519;-62
2023/04/24 05:43:15;;;;;;;15.68;13.00;;;589.40;1664.00;;;;;;5029194;28;20492;-61
2023/04/24 05:45:41;;;;;;;11.13;9.73;;;614.40;1638.40;;;;;;5038462;28;20114;-62
2023/04/24 05:48:06;;;;;;;11.93;9.10;;;589.70;1612.80;;;;;;5049306;28;20029;-66
2023/04/24 05:50:32;;;;;;;15.02;11.75;;;589.20;1689.60;;;;;;5049637;28;20485;-68
2023/04/24 05:52:58;;;;;;;20.67;13.73;;;563.90;1740.80;;;;;;5049562;28;20036;-67
2023/04/24 05:55:25;;;;;;;18.83;14.15;;;538.10;1792.00;;;;;;5049082;28;20065;-67
2023/04/24 05:57:51;;;;;;;17.38;11.88;;;538.40;1792.00;;;;;;5049408;28;20017;-67
2023/04/24 06:00:19;;;;;;;11.27;8.52;;;538.40;1766.40;;;;;;5048979;28;20025;-69
2023/04/24 06:02:45;;;;;;;8.18;7.35;;;563.20;1792.00;;;;;;5035497;28;20024;-66
2023/04/24 06:05:11;;;;;;;11.55;7.70;;;563.90;1740.80;;;;;;5049501;28;20033;-66
2023/04/24 06:07:36;;;;;;;9.82;8.35;;;615.00;1612.80;;;;;;5049611;28;20391;-66
2023/04/24 06:10:02;;;;;;;13.35;7.43;;;614.60;1664.00;;;;;;5049199;28;20402;-65
2023/04/24 06:12:28;;;;;;;11.65;8.00;;;615.20;1587.20;;;;;;5049461;28;20433;-66
2023/04/24 06:14:55;;;;;;;11.13;7.50;;;666.00;1561.60;;;;;;5048608;28;20029;-65
2023/04/24 06:17:21;;;;;;;9.00;8.10;;;691.40;1484.80;;;;;;5049245;28;20013;-67
2023/04/24 06:19:47;;;;;;;20.05;8.13;;;691.20;1484.80;;;;;;5049101;28;20104;-66
2023/04/24 06:22:13;;;;;;;9.55;7.13;;;640.70;1536.00;;;;;;5048834;28;20047;-66
2023/04/24 06:24:40;;;;;;;13.52;9.38;;;614.70;1612.80;;;;;;5049009;28;20521;-66
2023/04/24 06:27:06;;;;;;;17.15;11.40;;;589.30;1715.20;;;;;;5049059;28;20033;-65
2023/04/24 06:29:33;;;;;;;20.23;13.85;;;563.90;1766.40;;;;;;5048952;28;20029;-66
2023/04/24 06:31:58;;;;;;;19.50;13.70;;;538.10;1817.60;;;;;;5049267;28;20162;-66
2023/04/24 06:34:24;;;;;;;14.55;9.73;;;512.60;1868.80;;;;;;5048337;28;20136;-69
2023/04/24 06:36:50;;;;;;;15.73;10.02;;;512.60;1868.80;;;;;;5049048;28;20029;-66
2023/04/24 06:39:16;;;;;;;12.93;8.38;;;512.40;1894.40;;;;;;5048940;28;20441;-64
2023/04/24 06:41:42;;;;;;;10.43;8.48;;;512.00;1868.80;;;;;;5049249;28;20033;-65
2023/04/24 06:44:07;;;;;;;15.32;10.48;;;487.20;1894.40;;;;;;5048679;28;20028;-64
2023/04/24 06:46:33;;;;;;;14.80;10.48;;;487.20;1920.00;;;;;;5048945;28;20036;-65
2023/04/24 06:49:00;;;;;;;27.95;16.48;;;487.30;1945.60;;;;;;5049036;28;20474;-64
2023/04/24 06:51:27;;;;;;;20.23;12.25;;;487.10;1971.20;;;;;;5048962;28;20112;-64
2023/04/24 06:53:58;;;;;;;22.05;12.77;;;487.10;1971.20;;;;;;5022771;28;20041;-64
2023/04/24 06:56:25;;;;;;;15.13;11.57;;;487.00;2022.40;;;;;;5048766;28;20028;-64
2023/04/24 06:58:51;;;;;;;15.73;11.88;;;487.20;2048.00;;;;;;5048903;28;20065;-64
2023/04/24 07:01:17;;;;;;;21.27;13.52;;;487.10;2073.60;;;;;;5048622;28;20059;-65
2023/04/24 07:03:42;;;;;;;20.45;15.45;;;487.20;2048.00;;;;;;5048893;28;20061;-64
2023/04/24 07:06:12;;;;;;;19.17;14.77;;;487.10;2073.60;;;;;;5048811;28;20029;-64
2023/04/24 07:08:39;;;;;;;21.90;15.45;;;486.90;2124.80;;;;;;5049039;28;20032;-65
2023/04/24 07:11:05;;;;;;;22.17;15.52;;;486.80;2073.60;;;;;;5048284;28;20061;-64
2023/04/24 07:13:31;;;;;;;19.88;16.58;;;486.80;2099.20;;;;;;5048878;28;20053;-65
2023/04/24 07:15:57;;;;;;;26.83;19.73;;;487.20;2073.60;;;;;;5048467;28;20505;-65
2023/04/24 07:18:23;;;;;;;23.27;16.95;;;512.30;2048.00;;;;;;5048593;28;20033;-64
2023/04/24 07:20:51;;;;;;;29.80;22.98;;;537.60;1945.60;;;;;;5050083;28;20048;-65
2023/04/24 07:23:18;;;;;;;40.40;27.63;;;538.00;2022.40;;;;;;5052194;28;20104;-65
2023/04/24 07:25:44;;;;;;;41.00;25.63;;;538.10;2099.20;;;;;;5051660;28;20483;-63
2023/04/24 07:28:09;;;;;;;38.95;25.38;;;512.50;2176.00;;;;;;5052029;28;20066;-65
2023/04/24 07:30:35;;;;;;;43.55;27.27;;;512.20;2201.60;;;;;;5052613;28;20440;-64
2023/04/24 07:33:01;;;;;;;36.97;26.77;;;487.30;2278.40;;;;;;5051977;28;20017;-63
2023/04/24 07:35:27;;;;;;;45.17;26.05;;;512.00;2252.80;;;;;;5051762;28;20053;-66
2023/04/24 07:37:53;;;;;;;45.58;26.38;;;487.20;2278.40;;;;;;5052134;28;20025;-67
2023/04/24 07:40:19;;;;;;;38.35;24.27;;;487.20;2304.00;;;;;;5051668;28;20029;-66
2023/04/24 07:42:45;;;;;;;37.63;24.63;;;487.30;2355.20;;;;;;5052257;28;20459;-66
2023/04/24 07:45:10;;;;;;;37.58;26.75;;;512.10;2355.20;;;;;;5050647;28;20032;-67
2023/04/24 07:47:37;;;;;;;54.03;33.65;;;512.10;2380.80;;;;;;5040136;28;20465;-66
2023/04/24 07:50:03;;;;;;;41.92;29.48;;;487.00;2380.80;;;;;;5050693;28;20029;-66
2023/04/24 07:52:30;;;;;;;47.15;30.63;;;486.50;2380.80;;;;;;5039784;28;20021;-66
2023/04/24 07:54:58;;;;;;;58.45;30.33;;;461.50;2380.80;;;;;;5038575;28;20033;-66
2023/04/24 07:57:25;;;;;;;51.55;30.48;;;461.20;2380.80;;;;;;5040179;28;20031;-68
2023/04/24 07:59:51;;;;;;;44.38;31.70;;;461.20;2380.80;;;;;;5050941;28;20080;-66
2023/04/24 08:02:17;;;;;;;44.95;30.33;;;461.00;2380.80;;;;;;5052002;28;20529;-65
2023/04/24 08:04:43;;;;;;;43.65;27.10;;;436.10;2355.20;;;;;;5051262;28;20033;-66
2023/04/24 08:07:08;;;;;;;39.75;28.10;;;460.80;2380.80;;;;;;5051811;28;20017;-66
2023/04/24 08:09:34;;;;;;;35.40;23.35;;;460.90;2380.80;;;;;;5051512;28;20076;-65
2023/04/24 08:12:01;;;;;;;36.53;25.05;;;460.80;2380.80;;;;;;5051463;28;20044;-66
2023/04/24 08:14:26;;;;;;;36.25;21.77;;;461.10;2380.80;;;;;;5051439;28;20154;-65
2023/04/24 08:16:55;;;;;;;34.60;26.10;;;461.10;2380.80;;;;;;5051307;28;20104;-66
2023/04/24 08:19:21;;;;;;;41.97;27.50;;;460.80;2380.80;;;;;;5051369;28;20033;-64
2023/04/24 08:21:46;;;;;;;28.40;20.85;;;436.10;2355.20;;;;;;5051366;28;20108;-66
2023/04/24 08:24:12;;;;;;;28.35;20.23;;;435.90;2355.20;;;;;;5050950;28;20032;-65
2023/04/24 08:26:38;;;;;;;28.30;22.02;;;435.70;2355.20;;;;;;5051111;28;20052;-66
2023/04/24 08:29:04;;;;;;;25.33;18.20;;;436.10;2355.20;;;;;;5051105;28;20029;-65
2023/04/24 08:31:30;;;;;;;37.05;21.02;;;436.10;2355.20;;;;;;5051059;28;20028;-65
2023/04/24 08:33:55;;;;;;;35.28;25.33;;;436.10;2355.20;;;;;;5051019;28;20049;-65
2023/04/24 08:36:21;;;;;;;39.67;30.83;;;460.80;2380.80;;;;;;5050761;28;20032;-67
2023/04/24 08:38:47;;;;;;;38.58;24.73;;;460.80;2380.80;;;;;;5051191;28;20021;-64
2023/04/24 08:41:15;;;;;;;24.73;20.40;;;461.10;2380.80;;;;;;5050953;28;20166;-68
2023/04/24 08:43:42;;;;;;;31.20;27.80;;;461.20;2380.80;;;;;;5050304;28;20112;-69
2023/04/24 08:46:08;;;;;;;30.77;20.50;;;461.20;2380.80;;;;;;5051047;28;20100;-64
2023/04/24 08:48:34;;;;;;;65.90;39.47;;;461.30;2380.80;;;;;;5050860;28;20072;-64
2023/04/24 08:51:02;;;;;;;24.00;19.48;;;461.40;2380.80;;;;;;5050843;28;20104;-65
2023/04/24 08:53:27;;;;;;;24.20;16.45;;;461.30;2380.80;;;;;;5050574;28;20434;-64
2023/04/24 08:55:55;;;;;;;21.52;14.57;;;461.10;2380.80;;;;;;5047255;28;20022;-65
2023/04/24 08:58:22;;;;;;;19.92;13.38;;;461.10;2380.80;;;;;;5027911;28;20053;-64
2023/04/24 09:00:48;;;;;;;92.75;50.00;;;460.90;2380.80;;;;;;5030673;28;20034;-66
2023/04/24 09:03:15;;;;;;;36.20;28.92;;;460.80;2380.80;;;;;;5039752;28;20021;-64
2023/04/24 09:05:45;;;;;;;46.25;36.13;;;460.80;2380.80;;;;;;5050336;28;20142;-64
2023/04/24 09:08:16;;;;;;;61.00;41.75;;;460.90;2380.80;;;;;;5050272;28;20032;-64
2023/04/24 09:10:42;;;;;;;67.43;43.75;;;461.00;2380.80;;;;;;5050188;28;20107;-65
2023/04/24 09:13:11;;;;;;;32.45;20.98;;;461.00;2380.80;;;;;;5050280;28;20096;-64
2023/04/24 09:15:39;;;;;;;21.33;17.40;;;461.00;2380.80;;;;;;5050771;28;20048;-64
2023/04/24 09:18:05;;;;;;;23.90;17.13;;;461.00;2380.80;;;;;;5045198;28;20018;-64
2023/04/24 09:20:32;;;;;;;20.40;17.58;;;461.00;2380.80;;;;;;5042187;28;20029;-64
2023/04/24 09:22:58;;;;;;;32.08;24.65;;;460.80;2380.80;;;;;;5049943;28;20021;-64
2023/04/24 09:25:35;;;;;;;34.00;25.35;;;435.80;2355.20;;;;;;5050066;28;20111;-64
2023/04/24 09:28:06;;;;;;;39.08;29.58;;;435.50;2355.20;;;;;;5024113;28;20027;-64
2023/04/24 09:30:32;;;;;;;40.03;28.05;;;435.50;2355.20;;;;;;5049531;28;20025;-65
2023/04/24 09:33:12;;;;;;;32.78;24.08;;;435.60;2355.20;;;;;;5050263;28;20108;-64
2023/04/24 09:35:41;;;;;;;31.55;22.42;;;435.70;2355.20;;;;;;5029904;28;20057;-64
2023/04/24 09:38:07;;;;;;;30.52;22.02;;;435.80;2355.20;;;;;;5029876;28;20040;-64
2023/04/24 09:40:34;;;;;;;32.75;26.13;;;435.90;2355.20;;;;;;5029644;28;20105;-64
2023/04/24 09:43:02;;;;;;;37.53;31.60;;;460.80;2380.80;;;;;;5029209;28;20546;-65
2023/04/24 09:45:35;;;;;;;40.90;33.47;;;461.20;2380.80;;;;;;5029810;28;20038;-63
2023/04/24 09:48:01;;;;;;;39.75;29.48;;;461.20;2380.80;;;;;;5029910;28;20053;-65
2023/04/24 09:50:26;;;;;;;33.38;22.25;;;461.40;2380.80;;;;;;5029469;28;20116;-65
2023/04/24 09:53:01;;;;;;;24.63;19.45;;;461.50;2380.80;;;;;;5029384;28;20104;-64
2023/04/24 09:55:27;;;;;;;23.05;20.55;;;461.60;2380.80;;;;;;5029441;28;20041;-64
2023/04/24 09:57:55;;;;;;;27.65;23.33;;;461.60;2380.80;;;;;;5029832;28;20060;-65
2023/04/24 10:00:31;;;;;;;32.05;22.70;;;461.70;2380.80;;;;;;5029402;28;20025;-65
2023/04/24 10:03:02;;;;;;;22.63;17.05;;;461.60;2380.80;;;;;;5029685;28;20120;-65
2023/04/24 10:05:31;;;;;;;29.00;21.55;;;461.50;2380.80;;;;;;5029925;28;20064;-64
2023/04/24 10:08:02;;;;;;;30.02;23.55;;;461.50;2380.80;;;;;;5029266;28;20030;-65
2023/04/24 10:10:29;;;;;;;35.58;27.10;;;461.50;2380.80;;;;;;5029421;28;20026;-64
2023/04/24 10:12:55;;;;;;;27.90;22.75;;;461.40;2380.80;;;;;;5029138;28;20030;-65
2023/04/24 10:15:21;;;;;;;29.80;23.40;;;461.30;2380.80;;;;;;5029603;28;20034;-64
2023/04/24 10:17:52;;;;;;;105.50;76.55;;;461.20;2380.80;;;;;;5028966;28;20017;-66
2023/04/24 10:20:22;;;;;;;57.88;38.85;;;461.30;2380.80;;;;;;5029523;28;20367;-65
2023/04/24 10:22:50;;;;;;;49.63;37.28;;;461.20;2380.80;;;;;;5029008;28;20025;-65
2023/04/24 10:25:26;;;;;;;37.42;30.65;;;461.20;2380.80;;;;;;5029158;28;20026;-66
2023/04/24 10:27:57;;;;;;;38.85;32.33;;;461.40;2380.80;;;;;;5029278;28;20062;-65
2023/04/24 10:30:23;;;;;;;43.10;34.63;;;461.40;2380.80;;;;;;5029176;28;20018;-65
2023/04/24 10:32:49;;;;;;;40.10;31.20;;;461.50;2380.80;;;;;;5029362;28;20378;-65
2023/04/24 10:35:17;;;;;;;32.42;26.80;;;461.50;2380.80;;;;;;5045930;28;20068;-64
2023/04/24 10:37:56;;;;;;;124.03;101.45;;;486.40;2380.80;;;;;;5049063;28;20363;-64
2023/04/24 10:40:35;;;;;;;38.20;31.00;;;486.60;2380.80;;;;;;5048817;28;20036;-65
2023/04/24 10:43:11;;;;;;;27.77;22.02;;;486.90;2380.80;;;;;;5048534;28;20025;-65
2023/04/24 10:45:38;;;;;;;20.02;17.02;;;486.90;2380.80;;;;;;5049390;28;20048;-65
2023/04/24 10:48:10;;;;;;;25.13;20.10;;;487.00;2380.80;;;;;;5048792;28;20025;-65
2023/04/24 10:50:47;;;;;;;27.35;19.40;;;487.10;2380.80;;;;;;5048917;28;20122;-65
2023/04/24 10:53:17;;;;;;;22.30;18.83;;;487.30;2380.80;;;;;;5048557;28;20021;-66
2023/04/24 10:55:46;;;;;;;29.65;21.20;;;512.10;2380.80;;;;;;5049832;28;20064;-66
2023/04/24 10:58:12;;;;;;;26.33;21.02;;;487.30;2380.80;;;;;;5052820;28;20021;-65
2023/04/24 11:00:40;;;;;;;27.98;22.90;;;512.30;2380.80;;;;;;5052996;28;20029;-65
2023/04/24 11:03:08;;;;;;;27.33;22.50;;;512.80;2380.80;;;;;;5053027;28;20055;-64
2023/04/24 11:05:57;;;;;;;23.67;18.20;;;537.70;2406.40;;;;;;5052750;28;20104;-65
2023/04/24 11:08:30;;;;;;;21.58;17.98;;;537.90;2406.40;;;;;;5052712;28;20028;-66
2023/04/24 11:11:13;;;;;;;20.13;16.08;;;537.60;2406.40;;;;;;5052694;28;20033;-65
2023/04/24 11:13:54;;;;;;;18.75;15.18;;;512.90;2380.80;;;;;;5030478;28;20418;-66
2023/04/24 11:16:28;;;;;;;20.92;16.63;;;512.70;2380.80;;;;;;5052330;28;20017;-66
2023/04/24 11:19:20;;;;;;;27.35;19.25;;;512.40;2380.80;;;;;;5052387;28;20025;-66
2023/04/24 11:21:51;;;;;;;32.30;23.73;;;512.40;2380.80;;;;;;5052780;28;20449;-66
2023/04/24 11:24:28;;;;;;;30.42;20.85;;;512.30;2380.80;;;;;;5052320;28;20348;-66
2023/04/24 11:27:01;;;;;;;31.95;23.00;;;512.10;2380.80;;;;;;5052274;28;20040;-66
2023/04/24 11:29:56;;;;;;;22.42;15.90;;;487.30;2380.80;;;;;;5052081;28;20082;-65
2023/04/24 11:32:32;;;;;;;15.90;11.70;;;487.20;2380.80;;;;;;5051526;28;20086;-66
2023/04/24 11:35:08;;;;;;;20.42;13.30;;;487.20;2380.80;;;;;;5051880;28;20071;-66
2023/04/24 11:37:38;;;;;;;22.38;13.80;;;487.00;2380.80;;;;;;5050468;28;20427;-66
2023/04/24 11:40:06;;;;;;;25.98;18.88;;;486.70;2380.80;;;;;;5051930;28;20025;-65
2023/04/24 11:42:56;;;;;;;37.70;24.77;;;486.90;2380.80;;;;;;5051506;28;20021;-66
2023/04/24 11:45:27;;;;;;;23.95;16.00;;;486.90;2380.80;;;;;;5051478;28;20033;-66
2023/04/24 11:47:53;;;;;;;23.73;16.58;;;486.90;2380.80;;;;;;5051769;28;20493;-66
2023/04/24 11:50:22;;;;;;;24.73;15.50;;;487.00;2380.80;;;;;;5051506;28;20108;-66
2023/04/24 11:52:49;;;;;;;22.83;17.70;;;486.80;2380.80;;;;;;5052379;28;20025;-66
2023/04/24 11:55:15;;;;;;;29.50;20.08;;;486.80;2380.80;;;;;;5051656;28;20467;-66
2023/04/24 11:57:45;;;;;;;27.13;19.80;;;487.00;2380.80;;;;;;5051432;28;20025;-66
2023/04/24 12:00:33;;;;;;;27.73;16.88;;;487.20;2380.80;;;;;;5051469;28;20375;-66
2023/04/24 12:03:11;;;;;;;32.90;24.17;;;487.20;2380.80;;;;;;5051822;28;20029;-66
2023/04/24 12:05:37;;;;;;;32.35;22.95;;;512.00;2380.80;;;;;;5051807;28;20109;-66